createdAt,value
2023-03-29T00:02:11.258Z,101417.81
2023-03-29T00:04:39.045Z,101416.97
2023-03-29T00:07:05.954Z,101415.28
2023-03-29T00:09:33.299Z,101411.94
2023-03-29T00:12:01.748Z,101422.16
2023-03-29T00:14:30.811Z,101425.78
2023-03-29T00:16:58.537Z,101410.75
2023-03-29T00:19:25.224Z,101414.81
2023-03-29T00:21:52.009Z,101410.94
2023-03-29T00:24:18.621Z,101412.25
2023-03-29T00:26:45.507Z,101393.25
2023-03-29T00:29:12.535Z,101395.13
2023-03-29T00:31:39.620Z,101393.84
2023-03-29T00:34:06.402Z,101392.75
2023-03-29T00:36:33.077Z,101394.47
2023-03-29T00:38:59.916Z,101390.44
2023-03-29T00:41:27.442Z,101381.25
2023-03-29T00:44:02.805Z,101385.25
2023-03-29T00:46:30.947Z,101380.94
2023-03-29T00:49:04.587Z,101382.03
2023-03-29T00:51:35.710Z,101374.50
2023-03-29T00:54:05.983Z,101372.41
2023-03-29T00:56:39.821Z,101379.00
2023-03-29T00:59:12.292Z,101370.75
2023-03-29T01:01:44.952Z,101363.25
2023-03-29T01:04:20.778Z,101361.03
2023-03-29T01:07:13.608Z,101355.69
2023-03-29T01:09:44.510Z,101354.97
2023-03-29T01:12:17.143Z,101359.88
2023-03-29T01:15:04.316Z,101367.63
2023-03-29T01:17:31.896Z,101357.84
2023-03-29T01:20:22.222Z,101359.59
2023-03-29T01:23:27.310Z,101352.34
2023-03-29T01:26:25.004Z,101347.97
2023-03-29T01:28:55.062Z,101348.81
2023-03-29T01:31:30.061Z,101341.28
2023-03-29T01:34:32.512Z,101336.84
2023-03-29T01:37:08.678Z,101329.84
2023-03-29T01:39:35.817Z,101325.16
2023-03-29T01:42:21.508Z,101327.97
2023-03-29T01:45:06.710Z,101321.84
2023-03-29T01:47:48.594Z,101317.47
2023-03-29T01:50:25.610Z,101311.78
2023-03-29T01:53:07.558Z,101303.22
2023-03-29T01:55:39.300Z,101307.91
2023-03-29T01:58:10.231Z,101304.84
2023-03-29T02:00:39.991Z,101303.25
2023-03-29T02:03:10.123Z,101302.44
2023-03-29T02:05:39.465Z,101297.00
2023-03-29T02:08:08.779Z,101300.69
2023-03-29T02:10:36.834Z,101296.19
2023-03-29T02:13:04.672Z,101294.75
2023-03-29T02:15:33.223Z,101292.13
2023-03-29T02:17:59.992Z,101291.56
2023-03-29T02:20:32.220Z,101288.06
2023-03-29T02:23:06.417Z,101285.03
2023-03-29T02:25:33.588Z,101288.06
2023-03-29T02:28:01.209Z,101280.38
2023-03-29T02:30:49.673Z,101280.81
2023-03-29T02:33:24.074Z,101277.41
2023-03-29T02:36:03.282Z,101274.56
2023-03-29T02:38:32.836Z,101276.59
2023-03-29T02:41:00.572Z,101265.66
2023-03-29T02:43:29.934Z,101259.56
2023-03-29T02:45:56.993Z,101253.91
2023-03-29T02:48:27.131Z,101256.75
2023-03-29T02:50:58.038Z,101252.66
2023-03-29T02:53:30.696Z,101247.22
2023-03-29T02:55:57.811Z,101245.16
2023-03-29T02:58:26.653Z,101243.34
2023-03-29T03:00:53.858Z,101249.84
2023-03-29T03:03:21.061Z,101251.66
2023-03-29T03:05:49.371Z,101249.84
2023-03-29T03:08:16.461Z,101248.22
2023-03-29T03:10:43.147Z,101245.19
2023-03-29T03:13:10.006Z,101249.75
2023-03-29T03:15:37.246Z,101248.56
2023-03-29T03:18:04.813Z,101241.38
2023-03-29T03:20:32.386Z,101238.47
2023-03-29T03:23:01.094Z,101231.09
2023-03-29T03:25:28.723Z,101234.03
2023-03-29T03:27:55.661Z,101228.72
2023-03-29T03:30:24.465Z,101225.94
2023-03-29T03:33:10.094Z,101228.72
2023-03-29T03:35:42.867Z,101224.72
2023-03-29T03:38:12.342Z,101229.66
2023-03-29T03:40:40.181Z,101231.53
2023-03-29T03:43:07.132Z,101233.63
2023-03-29T03:45:34.542Z,101221.88
2023-03-29T03:48:11.651Z,101234.09
2023-03-29T03:50:51.258Z,101227.94
2023-03-29T03:53:19.257Z,101226.94
2023-03-29T03:56:09.089Z,101232.75
2023-03-29T03:58:47.568Z,101227.34
2023-03-29T04:01:17.371Z,101226.72
2023-03-29T04:03:54.162Z,101232.28
2023-03-29T04:06:22.648Z,101220.16
2023-03-29T04:09:23.394Z,101226.31
2023-03-29T04:12:02.545Z,101209.72
2023-03-29T04:14:32.223Z,101215.41
2023-03-29T04:17:06.848Z,101221.47
2023-03-29T04:20:12.385Z,101220.22
2023-03-29T04:22:41.178Z,101211.34
2023-03-29T04:25:08.710Z,101217.41
2023-03-29T04:27:47.955Z,101209.28
2023-03-29T04:30:29.228Z,101198.72
2023-03-29T04:33:08.860Z,101195.75
2023-03-29T04:35:37.131Z,101202.41
2023-03-29T04:38:10.493Z,101206.88
2023-03-29T04:40:38.608Z,101201.03
2023-03-29T04:43:12.242Z,101198.38
2023-03-29T04:45:46.300Z,101199.16
2023-03-29T04:48:25.790Z,101196.34
2023-03-29T04:50:54.483Z,101193.91
2023-03-29T04:53:22.732Z,101186.44
2023-03-29T04:55:50.508Z,101190.88
2023-03-29T04:58:32.523Z,101198.59
2023-03-29T05:01:00.965Z,101196.88
2023-03-29T05:03:38.162Z,101193.03
2023-03-29T05:06:14.152Z,101188.66
2023-03-29T05:08:41.285Z,101184.81
2023-03-29T05:11:25.180Z,101192.72
2023-03-29T05:13:52.492Z,101185.44
2023-03-29T05:16:19.354Z,101190.59
2023-03-29T05:18:46.816Z,101191.16
2023-03-29T05:21:14.172Z,101195.09
2023-03-29T05:23:47.067Z,101192.59
2023-03-29T05:26:16.248Z,101201.97
2023-03-29T05:28:51.515Z,101205.22
2023-03-29T05:31:18.791Z,101203.25
2023-03-29T05:33:50.376Z,101200.09
2023-03-29T05:36:19.318Z,101206.00
2023-03-29T05:38:49.920Z,101203.16
2023-03-29T05:41:18.619Z,101197.72
2023-03-29T05:44:14.208Z,101211.22
2023-03-29T05:46:43.071Z,101202.59
2023-03-29T05:49:14.574Z,101196.00
2023-03-29T05:52:02.465Z,101204.44
2023-03-29T05:54:31.218Z,101207.47
2023-03-29T05:56:58.428Z,101210.22
2023-03-29T05:59:28.328Z,101209.28
2023-03-29T06:01:54.983Z,101214.28
2023-03-29T06:04:21.977Z,101211.88
2023-03-29T06:07:02.009Z,101213.63
2023-03-29T06:09:29.146Z,101215.31
2023-03-29T06:12:01.838Z,101216.09
2023-03-29T06:14:34.618Z,101217.09
2023-03-29T06:17:13.779Z,101215.19
2023-03-29T06:19:40.687Z,101218.84
2023-03-29T06:22:07.531Z,101208.41
2023-03-29T06:24:34.807Z,101209.47
2023-03-29T06:27:08.218Z,101200.53
2023-03-29T06:29:36.318Z,101202.63
2023-03-29T06:32:03.338Z,101194.78
2023-03-29T06:34:46.162Z,101191.66
2023-03-29T06:37:34.479Z,101195.41
2023-03-29T06:40:11.633Z,101198.88
2023-03-29T06:42:42.926Z,101200.84
2023-03-29T06:45:31.036Z,101198.16
2023-03-29T06:48:00.585Z,101201.31
2023-03-29T06:50:27.512Z,101199.69
2023-03-29T06:53:04.712Z,101209.16
2023-03-29T06:55:32.166Z,101206.09
2023-03-29T06:58:09.304Z,101217.44
2023-03-29T07:00:38.990Z,101213.13
2023-03-29T07:03:15.017Z,101209.66
2023-03-29T07:05:42.078Z,101210.03
2023-03-29T07:08:15.609Z,101217.66
2023-03-29T07:11:03.731Z,101220.31
2023-03-29T07:13:49.285Z,101217.97
2023-03-29T07:16:19.592Z,101218.00
2023-03-29T07:19:09.469Z,101224.84
2023-03-29T07:22:07.414Z,101230.81
2023-03-29T07:24:44.507Z,101230.94
2023-03-29T07:27:12.305Z,101231.94
2023-03-29T07:29:39.275Z,101240.66
2023-03-29T07:32:06.536Z,101240.28
2023-03-29T07:34:42.182Z,101236.63
2023-03-29T07:37:13.837Z,101242.97
2023-03-29T07:39:42.592Z,101244.03
2023-03-29T07:42:28.259Z,101240.72
2023-03-29T07:44:56.234Z,101247.63
2023-03-29T07:47:23.609Z,101248.50
2023-03-29T07:49:50.486Z,101253.47
2023-03-29T07:52:18.100Z,101250.69
2023-03-29T07:54:45.323Z,101248.84
2023-03-29T07:57:26.549Z,101249.75
2023-03-29T07:59:55.442Z,101245.03
2023-03-29T08:02:27.337Z,101237.53
2023-03-29T08:04:57.721Z,101241.25
2023-03-29T08:07:31.312Z,101237.28
2023-03-29T08:10:19.520Z,101242.00
2023-03-29T08:13:24.876Z,101235.31
2023-03-29T08:16:12.138Z,101214.22
2023-03-29T08:18:45.187Z,101235.53
2023-03-29T08:21:14.739Z,101227.75
2023-03-29T08:23:45.009Z,101221.56
2023-03-29T08:26:19.650Z,101223.31
2023-03-29T08:28:47.670Z,101228.78
2023-03-29T08:31:16.582Z,101226.38
2023-03-29T08:33:44.844Z,101231.47
2023-03-29T08:36:37.807Z,101231.72
2023-03-29T08:39:11.586Z,101228.16
2023-03-29T08:42:03.907Z,101233.53
2023-03-29T08:44:59.286Z,101223.78
2023-03-29T08:48:04.019Z,101227.78
2023-03-29T08:50:40.550Z,101239.97
2023-03-29T08:53:12.865Z,101225.97
2023-03-29T08:56:06.874Z,101230.72
2023-03-29T08:58:56.318Z,101223.59
2023-03-29T09:01:30.692Z,101225.94
2023-03-29T09:04:04.893Z,101222.41
2023-03-29T09:06:47.554Z,101221.31
2023-03-29T09:09:23.584Z,101216.91
2023-03-29T09:12:33.639Z,101226.13
2023-03-29T09:15:15.559Z,101219.66
2023-03-29T09:18:21.872Z,101206.41
2023-03-29T09:21:20.463Z,101217.25
2023-03-29T09:24:02.948Z,101211.00
2023-03-29T09:27:32.344Z,101226.69
2023-03-29T09:30:27.990Z,101233.25
2023-03-29T09:33:12.770Z,101229.84
2023-03-29T09:36:22.934Z,101221.06
2023-03-29T09:38:54.399Z,101216.06
2023-03-29T09:41:35.844Z,101222.41
2023-03-29T09:44:20.553Z,101228.19
2023-03-29T09:47:01.934Z,101221.47
2023-03-29T09:49:36.367Z,101228.47
2023-03-29T09:52:10.797Z,101230.06
2023-03-29T09:54:38.205Z,101234.16
2023-03-29T09:57:36.489Z,101233.44
2023-03-29T10:00:06.595Z,101226.81
2023-03-29T10:02:57.126Z,101232.50
2023-03-29T10:05:40.132Z,101229.63
2023-03-29T10:08:36.621Z,101223.94
2023-03-29T10:11:12.413Z,101221.72
2023-03-29T10:13:47.199Z,101238.28
2023-03-29T10:16:22.446Z,101224.09
2023-03-29T10:18:50.294Z,101214.78
2023-03-29T10:21:22.356Z,101207.63
2023-03-29T10:23:50.208Z,101206.38
2023-03-29T10:26:31.817Z,101206.00
2023-03-29T10:29:01.525Z,101195.13
2023-03-29T10:31:31.497Z,101202.75
2023-03-29T10:34:02.767Z,101197.38
2023-03-29T10:36:30.071Z,101189.63
2023-03-29T10:39:05.904Z,101184.56
2023-03-29T10:41:35.613Z,101179.34
2023-03-29T10:44:03.669Z,101172.44
2023-03-29T10:46:41.999Z,101175.03
2023-03-29T10:49:20.332Z,101175.25
2023-03-29T10:51:51.931Z,101161.81
2023-03-29T10:54:22.557Z,101154.25
2023-03-29T10:56:53.708Z,101152.84
2023-03-29T10:59:47.776Z,101146.22
2023-03-29T11:02:47.277Z,101149.41
2023-03-29T11:05:24.905Z,101131.47
2023-03-29T11:08:10.293Z,101138.28
2023-03-29T11:10:58.847Z,101147.72
2023-03-29T11:13:59.940Z,101142.72
2023-03-29T11:16:53.645Z,101145.31
2023-03-29T11:19:38.321Z,101152.06
2023-03-29T11:22:11.398Z,101155.31
2023-03-29T11:24:41.451Z,101150.31
2023-03-29T11:27:43.059Z,101155.91
2023-03-29T11:30:30.609Z,101146.84
2023-03-29T11:33:25.520Z,101154.00
2023-03-29T11:36:16.849Z,101149.78
2023-03-29T11:38:55.692Z,101155.63
2023-03-29T11:41:32.196Z,101154.69
2023-03-29T11:44:03.081Z,101149.66
2023-03-29T11:46:38.627Z,101138.59
2023-03-29T11:49:13.952Z,101134.41
2023-03-29T11:51:46.120Z,101131.78
2023-03-29T11:54:31.207Z,101140.41
2023-03-29T11:57:13.165Z,101143.97
2023-03-29T11:59:49.973Z,101150.84
2023-03-29T12:02:39.958Z,101141.50
2023-03-29T12:05:15.974Z,101143.31
2023-03-29T12:07:49.893Z,101139.56
2023-03-29T12:10:23.608Z,101139.69
2023-03-29T12:12:56.430Z,101131.69
2023-03-29T12:15:26.300Z,101129.53
2023-03-29T12:18:06.336Z,101128.63
2023-03-29T12:20:38.985Z,101134.84
2023-03-29T12:23:10.904Z,101136.38
2023-03-29T12:25:49.484Z,101122.31
2023-03-29T12:28:23.471Z,101107.25
2023-03-29T12:31:00.648Z,101102.78
2023-03-29T12:34:03.337Z,101111.16
2023-03-29T12:37:13.368Z,101097.59
2023-03-29T12:39:46.962Z,101103.38
2023-03-29T12:42:44.563Z,101092.00
2023-03-29T12:45:49.330Z,101089.06
2023-03-29T12:48:20.262Z,101078.97
2023-03-29T12:50:57.270Z,101079.94
2023-03-29T12:53:27.045Z,101069.00
2023-03-29T12:56:01.059Z,101055.41
2023-03-29T12:58:40.234Z,101053.22
2023-03-29T13:01:10.916Z,101050.28
2023-03-29T13:03:40.840Z,101047.91
2023-03-29T13:06:10.066Z,101051.38
2023-03-29T13:08:41.059Z,101053.25
2023-03-29T13:11:13.511Z,101063.38
2023-03-29T13:13:41.762Z,101057.97
2023-03-29T13:16:21.611Z,101051.75
2023-03-29T13:18:48.572Z,101044.09
2023-03-29T13:21:44.859Z,101042.97
2023-03-29T13:24:31.292Z,101045.47
2023-03-29T13:27:42.308Z,101031.84
2023-03-29T13:30:20.115Z,101019.50
2023-03-29T13:33:14.645Z,101023.88
2023-03-29T13:35:59.950Z,101012.94
2023-03-29T13:38:31.672Z,101011.28
2023-03-29T13:41:05.554Z,101009.97
2023-03-29T13:43:44.600Z,101011.03
2023-03-29T13:46:43.491Z,101009.06
2023-03-29T13:49:21.182Z,101005.44
2023-03-29T13:52:02.856Z,101006.75
2023-03-29T13:54:35.694Z,101005.44
2023-03-29T13:57:08.926Z,101000.91
2023-03-29T13:59:50.633Z,101003.03
2023-03-29T14:02:50.822Z,100995.31
2023-03-29T14:05:21.638Z,100990.75
2023-03-29T14:07:52.801Z,100988.78
2023-03-29T14:10:26.909Z,100982.72
2023-03-29T14:12:55.932Z,100983.72
2023-03-29T14:15:26.615Z,100973.44
2023-03-29T14:18:00.809Z,100975.72
2023-03-29T14:20:28.004Z,100968.28
2023-03-29T14:22:54.807Z,100961.38
2023-03-29T14:25:23.272Z,100953.41
2023-03-29T14:27:49.997Z,100952.31
2023-03-29T14:30:20.253Z,100950.72
2023-03-29T14:32:48.897Z,100965.13
2023-03-29T14:35:15.684Z,100952.84
2023-03-29T14:37:42.911Z,100944.31
2023-03-29T14:40:21.144Z,100935.75
2023-03-29T14:42:48.804Z,100933.06
2023-03-29T14:45:18.509Z,100922.81
2023-03-29T14:47:47.237Z,100911.16
2023-03-29T14:50:27.078Z,100910.63
2023-03-29T14:52:54.520Z,100914.63
2023-03-29T14:55:23.900Z,100910.50
2023-03-29T14:57:54.275Z,100915.47
2023-03-29T15:00:30.097Z,100910.66
2023-03-29T15:03:02.400Z,100910.66
2023-03-29T15:05:54.415Z,100911.03
2023-03-29T15:08:32.322Z,100912.06
2023-03-29T15:10:59.597Z,100904.47
2023-03-29T15:13:28.336Z,100897.56
2023-03-29T15:16:03.325Z,100885.16
2023-03-29T15:18:41.611Z,100885.22
2023-03-29T15:21:10.651Z,100884.00
2023-03-29T15:23:41.673Z,100888.53
2023-03-29T15:26:14.026Z,100879.09
2023-03-29T15:28:55.832Z,100888.78
2023-03-29T15:31:32.403Z,100880.78
2023-03-29T15:34:06.311Z,100873.84
2023-03-29T15:36:40.503Z,100863.19
2023-03-29T15:39:14.272Z,100868.53
2023-03-29T15:41:42.227Z,100861.03
2023-03-29T15:44:10.539Z,100854.88
2023-03-29T15:46:37.653Z,100853.31
2023-03-29T15:49:05.233Z,100846.09
2023-03-29T15:51:32.070Z,100846.13
2023-03-29T15:53:58.895Z,100833.03
2023-03-29T15:56:26.686Z,100824.75
2023-03-29T15:58:53.259Z,100819.94
2023-03-29T16:01:46.825Z,100818.06
2023-03-29T16:04:17.402Z,100810.22
2023-03-29T16:06:47.468Z,100812.47
2023-03-29T16:09:15.240Z,100808.69
2023-03-29T16:11:43.486Z,100801.19
2023-03-29T16:14:24.796Z,100795.56
2023-03-29T16:16:52.306Z,100798.41
2023-03-29T16:19:19.463Z,100795.34
2023-03-29T16:21:46.274Z,100788.31
2023-03-29T16:24:21.896Z,100783.88
2023-03-29T16:26:49.428Z,100780.50
2023-03-29T16:29:17.333Z,100769.59
2023-03-29T16:31:44.990Z,100769.00
2023-03-29T16:34:13.837Z,100766.56
2023-03-29T16:36:41.029Z,100770.00
2023-03-29T16:39:07.959Z,100771.25
2023-03-29T16:41:35.186Z,100778.69
2023-03-29T16:44:01.941Z,100767.25
2023-03-29T16:46:29.137Z,100765.34
2023-03-29T16:48:57.913Z,100761.19
2023-03-29T16:51:26.039Z,100756.97
2023-03-29T16:53:52.709Z,100756.72
2023-03-29T16:56:20.558Z,100751.66
2023-03-29T16:58:47.509Z,100746.59
2023-03-29T17:01:16.668Z,100756.47
2023-03-29T17:03:44.083Z,100735.72
2023-03-29T17:06:12.053Z,100742.06
2023-03-29T17:08:39.629Z,100738.66
2023-03-29T17:11:07.206Z,100733.06
2023-03-29T17:13:34.076Z,100726.63
2023-03-29T17:16:01.346Z,100718.38
2023-03-29T17:18:28.409Z,100712.22
2023-03-29T17:20:59.296Z,100713.34
2023-03-29T17:23:26.268Z,100714.91
2023-03-29T17:25:54.990Z,100713.81
2023-03-29T17:28:24.088Z,100718.09
2023-03-29T17:30:51.307Z,100719.69
2023-03-29T17:33:22.803Z,100708.78
2023-03-29T17:35:50.279Z,100706.91
2023-03-29T17:38:18.703Z,100701.63
2023-03-29T17:40:52.329Z,100698.31
2023-03-29T17:43:18.837Z,100686.63
2023-03-29T17:45:46.207Z,100689.84
2023-03-29T17:48:13.284Z,100691.72
2023-03-29T17:50:39.899Z,100690.13
2023-03-29T17:53:07.257Z,100691.50
2023-03-29T17:55:33.927Z,100696.78
2023-03-29T17:58:00.716Z,100706.94
2023-03-29T18:00:27.783Z,100702.41
2023-03-29T18:02:54.607Z,100693.59
2023-03-29T18:05:21.774Z,100705.31
2023-03-29T18:07:48.366Z,100695.13
2023-03-29T18:10:15.848Z,100685.00
2023-03-29T18:12:42.487Z,100676.19
2023-03-29T18:15:09.716Z,100676.25
2023-03-29T18:17:37.189Z,100679.28
2023-03-29T18:20:11.505Z,100674.84
2023-03-29T18:22:39.738Z,100681.59
2023-03-29T18:25:07.457Z,100673.06
2023-03-29T18:27:36.432Z,100669.84
2023-03-29T18:30:03.316Z,100673.81
2023-03-29T18:32:30.100Z,100675.44
2023-03-29T18:34:56.741Z,100671.44
2023-03-29T18:37:23.593Z,100669.59
2023-03-29T18:39:50.204Z,100676.03
2023-03-29T18:42:17.328Z,100669.06
2023-03-29T18:44:43.836Z,100669.63
2023-03-29T18:47:10.627Z,100678.91
2023-03-29T18:49:37.151Z,100667.19
2023-03-29T18:52:04.874Z,100658.34
2023-03-29T18:54:31.809Z,100662.13
2023-03-29T18:56:59.354Z,100663.41
2023-03-29T18:59:26.608Z,100657.31
2023-03-29T19:01:53.284Z,100654.34
2023-03-29T19:04:20.049Z,100652.25
2023-03-29T19:06:47.390Z,100650.41
2023-03-29T19:09:14.030Z,100647.72
2023-03-29T19:11:40.917Z,100657.06
2023-03-29T19:14:09.163Z,100642.84
2023-03-29T19:16:36.093Z,100647.19
2023-03-29T19:19:02.756Z,100638.06
2023-03-29T19:21:31.837Z,100631.41
2023-03-29T19:24:00.701Z,100627.94
2023-03-29T19:26:33.324Z,100612.28
2023-03-29T19:29:00.979Z,100609.59
2023-03-29T19:31:27.828Z,100604.16
2023-03-29T19:33:55.286Z,100593.16
2023-03-29T19:36:22.206Z,100589.78
2023-03-29T19:38:49.063Z,100601.00
2023-03-29T19:41:15.890Z,100589.91
2023-03-29T19:43:42.541Z,100586.81
2023-03-29T19:46:11.778Z,100583.81
2023-03-29T19:48:40.111Z,100589.81
2023-03-29T19:51:07.917Z,100591.06
2023-03-29T19:53:38.495Z,100581.50
2023-03-29T19:56:07.604Z,100575.94
2023-03-29T19:58:35.650Z,100563.94
2023-03-29T20:03:29.707Z,100563.25
2023-03-29T20:05:56.840Z,100570.19
2023-03-29T20:08:24.756Z,100553.44
2023-03-29T20:11:04.039Z,100548.44
2023-03-29T20:16:16.339Z,100540.38
2023-03-29T20:18:46.877Z,100540.34
2023-03-29T20:21:16.266Z,100538.31
2023-03-29T20:23:43.409Z,100523.00
2023-03-29T20:26:10.539Z,100521.34
2023-03-29T20:28:40.109Z,100516.47
2023-03-29T20:31:10.797Z,100505.88
2023-03-29T20:33:37.996Z,100506.38
2023-03-29T20:36:05.757Z,100503.84
2023-03-29T20:38:33.216Z,100496.72
2023-03-29T20:41:00.118Z,100488.31
2023-03-29T20:43:26.979Z,100485.66
2023-03-29T20:45:54.489Z,100474.59
2023-03-29T20:48:30.251Z,100476.19
2023-03-29T20:50:57.802Z,100478.84
2023-03-29T20:53:25.743Z,100484.44
2023-03-29T20:55:52.620Z,100476.72
2023-03-29T20:58:19.242Z,100486.09
2023-03-29T21:00:48.350Z,100474.34
2023-03-29T21:03:14.990Z,100480.34
2023-03-29T21:05:41.863Z,100477.69
2023-03-29T21:08:08.515Z,100477.44
2023-03-29T21:10:37.129Z,100483.53
2023-03-29T21:13:06.171Z,100463.09
2023-03-29T21:15:41.930Z,100465.81
2023-03-29T21:18:09.747Z,100459.44
2023-03-29T21:20:37.634Z,100464.44
2023-03-29T21:23:04.667Z,100454.03
2023-03-29T21:25:31.541Z,100455.75
2023-03-29T21:27:58.532Z,100451.34
2023-03-29T21:30:25.084Z,100429.41
2023-03-29T21:32:51.880Z,100437.59
2023-03-29T21:35:18.668Z,100437.75
2023-03-29T21:37:45.267Z,100435.78
2023-03-29T21:40:12.972Z,100432.97
2023-03-29T21:42:39.683Z,100425.91
2023-03-29T21:45:08.440Z,100418.56
2023-03-29T21:47:35.504Z,100424.50
2023-03-29T21:50:04.259Z,100423.66
2023-03-29T21:52:31.449Z,100423.03
2023-03-29T21:54:58.156Z,100423.22
2023-03-29T21:57:24.894Z,100423.69
2023-03-29T21:59:51.586Z,100422.09
2023-03-29T22:02:18.340Z,100418.88
2023-03-29T22:04:45.233Z,100415.84
2023-03-29T22:07:12.469Z,100411.31
2023-03-29T22:09:42.520Z,100412.91
2023-03-29T22:12:10.068Z,100415.13
2023-03-29T22:14:37.198Z,100417.69
2023-03-29T22:17:09.372Z,100413.41
2023-03-29T22:19:39.845Z,100414.44
2023-03-29T22:22:13.971Z,100414.94
2023-03-29T22:24:41.907Z,100426.78
2023-03-29T22:27:08.702Z,100419.72
2023-03-29T22:29:37.471Z,100413.41
2023-03-29T22:32:04.935Z,100419.84
2023-03-29T22:34:32.102Z,100417.91
2023-03-29T22:36:58.629Z,100416.28
2023-03-29T22:39:25.289Z,100412.34
2023-03-29T22:41:51.831Z,100420.59
2023-03-29T22:44:18.418Z,100417.03
2023-03-29T22:46:45.095Z,100400.03
2023-03-29T22:49:11.937Z,100394.59
2023-03-29T22:51:38.977Z,100393.81
2023-03-29T22:54:05.963Z,100391.66
2023-03-29T22:56:32.570Z,100390.00
2023-03-29T22:58:59.288Z,100388.75
2023-03-29T23:01:26.005Z,100402.03
2023-03-29T23:03:52.809Z,100396.34
2023-03-29T23:06:19.557Z,100392.31
2023-03-29T23:08:46.161Z,100393.38
2023-03-29T23:11:12.995Z,100392.03
2023-03-29T23:13:40.109Z,100370.81
2023-03-29T23:16:07.417Z,100373.69
2023-03-29T23:18:37.953Z,100376.75
2023-03-29T23:21:07.821Z,100362.34
2023-03-29T23:23:36.996Z,100374.09
2023-03-29T23:26:04.570Z,100371.66
2023-03-29T23:28:34.882Z,100384.31
2023-03-29T23:31:09.199Z,100375.56
2023-03-29T23:33:40.390Z,100382.75
2023-03-29T23:36:13.267Z,100401.88
2023-03-29T23:38:40.699Z,100401.16
2023-03-29T23:41:10.871Z,100383.47
2023-03-29T23:43:43.901Z,100368.59
2023-03-29T23:46:14.257Z,100360.66
2023-03-29T23:48:48.877Z,100368.28
2023-03-29T23:51:18.892Z,100372.25
2023-03-29T23:53:46.525Z,100366.47
2023-03-29T23:56:14.530Z,100361.56
2023-03-29T23:58:41.188Z,100360.88
